PWSweather.com
Personal Weather Stations
Station Observations
IDALMACI22
Prvic LukaHR

Prvic LukaHR

Lat: 43.72542191, Lon: 15.7968483

Elevation: 20

Station Type: ws 2300

Latest ConditionsUpdated 7:30:03 AM GMT+01:01 Wednesday, Apr 25, 2018
Currently Today's Max Today's Min Today's Average
Temperature 60.1°F15.6°C 60.1°F15.6°C 54.9°F12.7°C 56.1°F13.4°C
Dew Point 55.3°F12.9°C 55.3°F12.9°C 50.7°F10.4°C 52.3°F11.3°C
Winds Calm Calm 2.5 mph N4.0 kmh N - 0.2 mph 0.3 kmh
Wind Gusts -- 2.5 mph4.0 kmh - -
Humidity 84% 89% 84% 87%
Pressure 29.96 in1014.6 mb 29.96 in1014.6 mb 29.94 in1013.9 mb -
Hour Temp Dew Point Humidity Winds Wind Gusts Pressure Precip Precip Rate Daily Precip Total
07:30 AM 60.1°F15.6°C 55.3°F12.9°C 84% Calm Calm -- 29.96 in1014.6 mb 0.00 in0.0 mm 0.00 in0.0 mm 0.00 in0.0 mm
07:20 AM 59.7°F15.4°C 54.9°F12.7°C 84% Calm Calm -- 29.96 in1014.6 mb 0.00 in0.0 mm 0.00 in0.0 mm 0.00 in0.0 mm
07:10 AM 58.8°F14.9°C 54.3°F12.4°C 85% Calm Calm 1.3 mph2.1 kmh 29.96 in1014.6 mb 0.00 in0.0 mm 0.00 in0.0 mm 0.00 in0.0 mm
07:00 AM 58.3°F14.6°C 53.8°F12.1°C 85% Calm Calm 1.6 mph2.6 kmh 29.96 in1014.6 mb 0.00 in0.0 mm 0.00 in0.0 mm 0.00 in0.0 mm
06:50 AM 57.4°F14.1°C 53.2°F11.8°C 86% Calm Calm 1.6 mph2.6 kmh 29.96 in1014.6 mb 0.00 in0.0 mm 0.00 in0.0 mm 0.00 in0.0 mm
06:40 AM 56.8°F13.8°C 52.7°F11.5°C 86% 1.6 mph N2.6 kmh N 1.6 mph2.6 kmh 29.96 in1014.6 mb 0.00 in0.0 mm 0.00 in0.0 mm 0.00 in0.0 mm
06:30 AM 56.1°F13.4°C 51.9°F11.1°C 86% Calm Calm -- 29.96 in1014.6 mb 0.00 in0.0 mm 0.00 in0.0 mm 0.00 in0.0 mm
06:20 AM 55.8°F13.2°C 51.6°F10.9°C 86% Calm Calm -- 29.96 in1014.6 mb 0.00 in0.0 mm 0.00 in0.0 mm 0.00 in0.0 mm
06:10 AM 55.2°F12.9°C 51.0°F10.6°C 86% Calm Calm -- 29.96 in1014.6 mb 0.00 in0.0 mm 0.00 in0.0 mm 0.00 in0.0 mm
06:00 AM 55.0°F12.8°C 50.9°F10.5°C 86% Calm Calm 1.1 mph1.8 kmh 29.96 in1014.6 mb 0.00 in0.0 mm 0.00 in0.0 mm 0.00 in0.0 mm
05:50 AM 54.9°F12.7°C 50.7°F10.4°C 86% Calm Calm -- 29.96 in1014.6 mb 0.00 in0.0 mm 0.00 in0.0 mm 0.00 in0.0 mm
05:40 AM 55.0°F12.8°C 50.9°F10.5°C 86% Calm Calm -- 29.95 in1014.2 mb 0.00 in0.0 mm 0.00 in0.0 mm 0.00 in0.0 mm
05:30 AM 55.2°F12.9°C 51.0°F10.6°C 86% Calm Calm -- 29.95 in1014.2 mb 0.00 in0.0 mm 0.00 in0.0 mm 0.00 in0.0 mm
05:20 AM 55.2°F12.9°C 51.0°F10.6°C 86% Calm Calm 2.0 mph3.2 kmh 29.94 in1013.9 mb 0.00 in0.0 mm 0.00 in0.0 mm 0.00 in0.0 mm
05:10 AM 55.0°F12.8°C 50.9°F10.5°C 86% 2.0 mph NNW3.2 kmh NNW 2.0 mph3.2 kmh 29.94 in1013.9 mb 0.00 in0.0 mm 0.00 in0.0 mm 0.00 in0.0 mm
05:00 AM 54.9°F12.7°C 51.0°F10.6°C 87% 1.1 mph NNW1.8 kmh NNW 1.1 mph1.8 kmh 29.94 in1013.9 mb 0.00 in0.0 mm 0.00 in0.0 mm 0.00 in0.0 mm
04:50 AM 55.0°F12.8°C 51.2°F10.7°C 87% Calm Calm -- 29.94 in1013.9 mb 0.00 in0.0 mm 0.00 in0.0 mm 0.00 in0.0 mm
04:40 AM 55.2°F12.9°C 51.4°F10.8°C 87% Calm Calm -- 29.94 in1013.9 mb 0.00 in0.0 mm 0.00 in0.0 mm 0.00 in0.0 mm
04:30 AM 55.2°F12.9°C 51.4°F10.8°C 87% Calm Calm -- 29.94 in1013.9 mb 0.00 in0.0 mm 0.00 in0.0 mm 0.00 in0.0 mm
04:20 AM 55.0°F12.8°C 51.2°F10.7°C 87% Calm Calm -- 29.94 in1013.9 mb 0.00 in0.0 mm 0.00 in0.0 mm 0.00 in0.0 mm
04:10 AM 55.2°F12.9°C 51.4°F10.8°C 87% Calm Calm -- 29.94 in1013.9 mb 0.00 in0.0 mm 0.00 in0.0 mm 0.00 in0.0 mm
04:00 AM 55.9°F13.3°C 52.1°F11.2°C 87% Calm Calm -- 29.94 in1013.9 mb 0.00 in0.0 mm 0.00 in0.0 mm 0.00 in0.0 mm
03:50 AM 55.9°F13.3°C 52.4°F11.3°C 88% Calm Calm 0.9 mph1.4 kmh 29.94 in1013.9 mb 0.00 in0.0 mm 0.00 in0.0 mm 0.00 in0.0 mm
03:40 AM 55.6°F13.1°C 52.1°F11.2°C 88% 0.9 mph NNE1.4 kmh NNE 0.9 mph1.4 kmh 29.94 in1013.9 mb 0.00 in0.0 mm 0.00 in0.0 mm 0.00 in0.0 mm
03:30 AM 55.6°F13.1°C 52.1°F11.2°C 88% 0.7 mph NE1.1 kmh NE 2.2 mph3.5 kmh 29.94 in1013.9 mb 0.00 in0.0 mm 0.00 in0.0 mm 0.00 in0.0 mm
03:20 AM 55.8°F13.2°C 52.2°F11.2°C 88% Calm Calm -- 29.94 in1013.9 mb 0.00 in0.0 mm 0.00 in0.0 mm 0.00 in0.0 mm
03:10 AM 55.8°F13.2°C 52.2°F11.2°C 88% Calm Calm -- 29.94 in1013.9 mb 0.00 in0.0 mm 0.00 in0.0 mm 0.00 in0.0 mm
03:00 AM 55.9°F13.3°C 52.4°F11.3°C 88% Calm Calm -- 29.94 in1013.9 mb 0.00 in0.0 mm 0.00 in0.0 mm 0.00 in0.0 mm
02:50 AM 55.8°F13.2°C 52.6°F11.4°C 89% Calm Calm 2.0 mph3.2 kmh 29.94 in1013.9 mb 0.00 in0.0 mm 0.00 in0.0 mm 0.00 in0.0 mm
02:40 AM 55.9°F13.3°C 52.7°F11.5°C 89% Calm Calm 1.8 mph2.9 kmh 29.94 in1013.9 mb 0.00 in0.0 mm 0.00 in0.0 mm 0.00 in0.0 mm
02:30 AM 56.1°F13.4°C 52.9°F11.6°C 89% Calm Calm 0.7 mph1.1 kmh 29.94 in1013.9 mb 0.00 in0.0 mm 0.00 in0.0 mm 0.00 in0.0 mm
02:20 AM 56.1°F13.4°C 52.9°F11.6°C 89% 0.7 mph NNE1.1 kmh NNE 2.5 mph4.0 kmh 29.94 in1013.9 mb 0.00 in0.0 mm 0.00 in0.0 mm 0.00 in0.0 mm
02:10 AM 56.1°F13.4°C 52.9°F11.6°C 89% 2.5 mph N4.0 kmh N 2.5 mph4.0 kmh 29.94 in1013.9 mb 0.00 in0.0 mm 0.00 in0.0 mm 0.00 in0.0 mm
02:00 AM 56.1°F13.4°C 52.9°F11.6°C 89% Calm Calm 1.1 mph1.8 kmh 29.94 in1013.9 mb 0.00 in0.0 mm 0.00 in0.0 mm 0.00 in0.0 mm
01:50 AM 55.8°F13.2°C 52.6°F11.4°C 89% Calm Calm -- 29.94 in1013.9 mb 0.00 in0.0 mm 0.00 in0.0 mm 0.00 in0.0 mm
01:40 AM 55.4°F13.0°C 52.2°F11.2°C 89% Calm Calm -- 29.94 in1013.9 mb 0.00 in0.0 mm 0.00 in0.0 mm 0.00 in0.0 mm
01:30 AM 55.4°F13.0°C 52.2°F11.2°C 89% Calm Calm -- 29.94 in1013.9 mb 0.00 in0.0 mm 0.00 in0.0 mm 0.00 in0.0 mm
01:20 AM 55.8°F13.2°C 52.6°F11.4°C 89% Calm Calm -- 29.95 in1014.2 mb 0.00 in0.0 mm 0.00 in0.0 mm 0.00 in0.0 mm
01:10 AM 55.8°F13.2°C 52.6°F11.4°C 89% Calm Calm -- 29.95 in1014.2 mb 0.00 in0.0 mm 0.00 in0.0 mm 0.00 in0.0 mm
01:00 AM 55.9°F13.3°C 52.4°F11.3°C 88% Calm Calm -- 29.95 in1014.2 mb 0.00 in0.0 mm 0.00 in0.0 mm 0.00 in0.0 mm
12:50 AM 56.1°F13.4°C 52.6°F11.4°C 88% Calm Calm -- 29.95 in1014.2 mb 0.00 in0.0 mm 0.00 in0.0 mm 0.00 in0.0 mm
12:40 AM 56.3°F13.5°C 52.8°F11.6°C 88% Calm Calm -- 29.95 in1014.2 mb 0.00 in0.0 mm 0.00 in0.0 mm 0.00 in0.0 mm
12:30 AM 56.5°F13.6°C 53.0°F11.7°C 88% Calm Calm -- 29.95 in1014.2 mb 0.00 in0.0 mm 0.00 in0.0 mm 0.00 in0.0 mm
12:20 AM 56.7°F13.7°C 53.1°F11.7°C 88% Calm Calm -- 29.95 in1014.2 mb 0.00 in0.0 mm 0.00 in0.0 mm 0.00 in0.0 mm
12:10 AM 56.8°F13.8°C 53.3°F11.8°C 88% Calm Calm -- 29.94 in1013.9 mb 0.00 in0.0 mm 0.00 in0.0 mm 0.00 in0.0 mm
12:00 AM 57.0°F13.9°C 53.5°F11.9°C 88% Calm Calm -- 29.95 in1014.2 mb 0.00 in0.0 mm 0.00 in0.0 mm 0.00 in0.0 mm